createdAt,value
2023-03-06T00:00:44.662Z,100706.13
2023-03-06T00:01:49.092Z,100699.09
2023-03-06T00:02:52.548Z,100702.34
2023-03-06T00:03:55.289Z,100692.53
2023-03-06T00:04:59.289Z,100697.47
2023-03-06T00:06:03.049Z,100699.50
2023-03-06T00:07:06.912Z,100695.47
2023-03-06T00:08:09.490Z,100694.31
2023-03-06T00:09:12.858Z,100695.25
2023-03-06T00:10:17.196Z,100691.31
2023-03-06T00:11:20.668Z,100689.84
2023-03-06T00:12:23.220Z,100696.22
2023-03-06T00:13:30.211Z,100687.44
2023-03-06T00:14:32.709Z,100694.13
2023-03-06T00:15:36.339Z,100692.88
2023-03-06T00:16:38.927Z,100688.47
2023-03-06T00:17:42.982Z,100688.94
2023-03-06T00:18:47.826Z,100685.22
2023-03-06T00:19:51.153Z,100690.19
2023-03-06T00:20:53.470Z,100679.63
2023-03-06T00:21:58.565Z,100688.59
2023-03-06T00:23:01.381Z,100683.25
2023-03-06T00:24:05.174Z,100679.78
2023-03-06T00:25:09.182Z,100680.19
2023-03-06T00:26:12.602Z,100687.41
2023-03-06T00:27:14.956Z,100691.50
2023-03-06T00:28:18.400Z,100686.31
2023-03-06T00:29:20.712Z,100691.31
2023-03-06T00:30:25.989Z,100686.34
2023-03-06T00:31:29.089Z,100690.41
2023-03-06T00:32:32.804Z,100685.13
2023-03-06T00:33:35.283Z,100681.38
2023-03-06T00:34:38.672Z,100685.47
2023-03-06T00:35:41.675Z,100685.59
2023-03-06T00:36:45.087Z,100686.50
2023-03-06T00:37:48.925Z,100677.66
2023-03-06T00:38:52.343Z,100678.69
2023-03-06T00:39:54.720Z,100690.25
2023-03-06T00:40:58.362Z,100680.91
2023-03-06T00:42:00.724Z,100680.44
2023-03-06T00:43:04.539Z,100677.28
2023-03-06T00:44:07.005Z,100684.84
2023-03-06T00:45:11.860Z,100676.97
2023-03-06T00:46:14.316Z,100680.59
2023-03-06T00:47:18.221Z,100682.66
2023-03-06T00:48:20.633Z,100686.38
2023-03-06T00:49:24.299Z,100675.84
2023-03-06T00:50:26.712Z,100678.75
2023-03-06T00:51:30.469Z,100677.03
2023-03-06T00:52:33.126Z,100680.19
2023-03-06T00:53:38.015Z,100674.31
2023-03-06T00:54:40.786Z,100680.13
2023-03-06T00:55:46.211Z,100680.00
2023-03-06T00:56:48.558Z,100677.75
2023-03-06T00:57:52.073Z,100680.00
2023-03-06T00:58:54.541Z,100683.06
2023-03-06T00:59:57.990Z,100677.63
2023-03-06T01:01:00.448Z,100678.31
2023-03-06T01:02:04.986Z,100673.44
2023-03-06T01:03:08.804Z,100678.19
2023-03-06T01:04:12.209Z,100671.50
2023-03-06T01:05:16.238Z,100671.59
2023-03-06T01:06:18.654Z,100670.44
2023-03-06T01:07:28.716Z,100662.28
2023-03-06T01:08:31.565Z,100660.63
2023-03-06T01:09:37.340Z,100659.16
2023-03-06T01:10:46.762Z,100663.59
2023-03-06T01:11:51.733Z,100667.41
2023-03-06T01:12:54.864Z,100661.75
2023-03-06T01:14:00.884Z,100664.63
2023-03-06T01:15:04.517Z,100665.13
2023-03-06T01:16:10.932Z,100664.91
2023-03-06T01:17:13.602Z,100662.63
2023-03-06T01:18:17.196Z,100660.66
2023-03-06T01:19:19.746Z,100660.78
2023-03-06T01:20:23.873Z,100662.38
2023-03-06T01:21:26.516Z,100652.16
2023-03-06T01:22:30.173Z,100650.50
2023-03-06T01:23:33.071Z,100656.81
2023-03-06T01:24:37.961Z,100656.56
2023-03-06T01:25:40.362Z,100653.31
2023-03-06T01:26:43.767Z,100652.34
2023-03-06T01:27:46.174Z,100652.81
2023-03-06T01:28:49.595Z,100645.78
2023-03-06T01:29:51.945Z,100646.44
2023-03-06T01:30:55.709Z,100647.91
2023-03-06T01:31:57.971Z,100646.59
2023-03-06T01:33:01.516Z,100643.75
2023-03-06T01:34:03.798Z,100642.69
2023-03-06T01:35:08.136Z,100641.41
2023-03-06T01:36:13.473Z,100639.16
2023-03-06T01:37:16.958Z,100643.84
2023-03-06T01:38:19.645Z,100641.09
2023-03-06T01:39:23.015Z,100632.78
2023-03-06T01:40:26.900Z,100642.44
2023-03-06T01:41:30.425Z,100634.28
2023-03-06T01:42:33.281Z,100635.09
2023-03-06T01:43:38.924Z,100631.47
2023-03-06T01:45:00.034Z,100628.56
2023-03-06T01:46:25.581Z,100622.50
2023-03-06T01:47:28.047Z,100623.56
2023-03-06T01:48:31.469Z,100620.16
2023-03-06T01:49:38.161Z,100623.88
2023-03-06T01:50:41.633Z,100622.53
2023-03-06T01:51:48.888Z,100618.38
2023-03-06T01:52:55.935Z,100612.66
2023-03-06T01:54:01.132Z,100622.84
2023-03-06T01:55:09.857Z,100618.59
2023-03-06T01:56:14.524Z,100614.41
2023-03-06T01:57:23.700Z,100621.19
2023-03-06T01:58:26.002Z,100614.75
2023-03-06T01:59:30.405Z,100613.81
2023-03-06T02:00:33.328Z,100613.81
2023-03-06T02:01:40.656Z,100608.78
2023-03-06T02:02:47.264Z,100614.88
2023-03-06T02:03:51.510Z,100611.97
2023-03-06T02:04:53.813Z,100610.16
2023-03-06T02:05:58.506Z,100607.03
2023-03-06T02:07:04.940Z,100611.09
2023-03-06T02:08:10.519Z,100606.50
2023-03-06T02:09:13.691Z,100605.28
2023-03-06T02:10:18.027Z,100607.13
2023-03-06T02:11:23.835Z,100606.75
2023-03-06T02:12:28.241Z,100603.06
2023-03-06T02:13:32.025Z,100601.53
2023-03-06T02:14:35.709Z,100602.59
2023-03-06T02:15:38.056Z,100602.38
2023-03-06T02:16:42.932Z,100599.44
2023-03-06T02:17:46.933Z,100603.97
2023-03-06T02:18:51.628Z,100596.41
2023-03-06T02:20:02.013Z,100592.91
2023-03-06T02:21:08.404Z,100594.44
2023-03-06T02:22:11.026Z,100587.94
2023-03-06T02:23:22.644Z,100592.00
2023-03-06T02:24:35.735Z,100596.91
2023-03-06T02:25:43.519Z,100591.41
2023-03-06T02:26:48.004Z,100587.59
2023-03-06T02:27:51.484Z,100593.44
2023-03-06T02:28:53.848Z,100584.50
2023-03-06T02:29:57.135Z,100586.69
2023-03-06T02:30:59.449Z,100585.09
2023-03-06T02:32:02.876Z,100594.53
2023-03-06T02:33:05.656Z,100593.31
2023-03-06T02:34:30.632Z,100594.38
2023-03-06T02:35:35.141Z,100590.09
2023-03-06T02:36:42.984Z,100593.06
2023-03-06T02:37:47.053Z,100589.28
2023-03-06T02:38:52.406Z,100581.91
2023-03-06T02:40:04.865Z,100574.91
2023-03-06T02:41:10.799Z,100579.69
2023-03-06T02:42:18.490Z,100575.50
2023-03-06T02:43:25.857Z,100584.59
2023-03-06T02:44:29.139Z,100583.13
2023-03-06T02:45:38.743Z,100580.44
2023-03-06T02:46:41.392Z,100579.78
2023-03-06T02:47:44.714Z,100578.97
2023-03-06T02:48:47.012Z,100584.13
2023-03-06T02:49:50.248Z,100580.94
2023-03-06T02:50:52.568Z,100580.59
2023-03-06T02:51:55.952Z,100578.72
2023-03-06T02:52:58.193Z,100578.97
2023-03-06T02:54:01.535Z,100580.38
2023-03-06T02:55:04.469Z,100571.75
2023-03-06T02:56:10.046Z,100583.66
2023-03-06T02:57:12.508Z,100575.97
2023-03-06T02:58:15.877Z,100582.47
2023-03-06T02:59:18.206Z,100582.53
2023-03-06T03:00:21.849Z,100584.31
2023-03-06T03:01:24.278Z,100586.91
2023-03-06T03:02:27.690Z,100588.84
2023-03-06T03:03:30.189Z,100583.25
2023-03-06T03:04:33.490Z,100579.81
2023-03-06T03:05:35.929Z,100581.09
2023-03-06T03:06:39.248Z,100573.69
2023-03-06T03:07:41.717Z,100568.50
2023-03-06T03:08:45.224Z,100580.75
2023-03-06T03:09:47.706Z,100572.22
2023-03-06T03:10:51.020Z,100574.31
2023-03-06T03:11:54.836Z,100567.69
2023-03-06T03:12:59.481Z,100572.06
2023-03-06T03:14:01.979Z,100572.00
2023-03-06T03:15:05.868Z,100570.72
2023-03-06T03:16:14.102Z,100573.84
2023-03-06T03:17:17.992Z,100567.59
2023-03-06T03:18:20.448Z,100568.03
2023-03-06T03:19:24.487Z,100570.38
2023-03-06T03:20:27.025Z,100570.19
2023-03-06T03:21:30.386Z,100573.69
2023-03-06T03:22:34.086Z,100575.72
2023-03-06T03:23:36.516Z,100573.94
2023-03-06T03:24:40.137Z,100575.28
2023-03-06T03:25:42.520Z,100572.66
2023-03-06T03:26:45.935Z,100570.44
2023-03-06T03:27:49.769Z,100569.75
2023-03-06T03:28:53.107Z,100571.91
2023-03-06T03:29:57.706Z,100565.69
2023-03-06T03:31:04.852Z,100570.69
2023-03-06T03:32:08.036Z,100571.13
2023-03-06T03:33:14.382Z,100565.56
2023-03-06T03:34:17.151Z,100572.22
2023-03-06T03:35:20.664Z,100570.41
2023-03-06T03:36:23.268Z,100568.31
2023-03-06T03:37:26.655Z,100566.53
2023-03-06T03:38:29.315Z,100572.38
2023-03-06T03:39:32.749Z,100569.47
2023-03-06T03:40:35.131Z,100566.03
2023-03-06T03:41:38.431Z,100565.00
2023-03-06T03:42:40.763Z,100567.69
2023-03-06T03:43:45.997Z,100574.97
2023-03-06T03:44:48.565Z,100566.44
2023-03-06T03:45:53.883Z,100572.53
2023-03-06T03:46:56.235Z,100564.38
2023-03-06T03:47:59.869Z,100571.44
2023-03-06T03:49:02.244Z,100571.63
2023-03-06T03:50:06.386Z,100566.28
2023-03-06T03:51:10.814Z,100573.59
2023-03-06T03:52:14.212Z,100569.69
2023-03-06T03:53:17.036Z,100569.28
2023-03-06T03:54:20.428Z,100563.84
2023-03-06T03:55:22.661Z,100575.69
2023-03-06T03:56:26.913Z,100577.47
2023-03-06T03:57:29.205Z,100572.81
2023-03-06T03:58:33.037Z,100572.84
2023-03-06T03:59:36.910Z,100566.38
2023-03-06T04:00:40.375Z,100566.22
2023-03-06T04:01:42.706Z,100575.41
2023-03-06T04:02:47.064Z,100558.94
2023-03-06T04:03:49.450Z,100566.84
2023-03-06T04:04:53.329Z,100562.75
2023-03-06T04:05:58.092Z,100568.31
2023-03-06T04:07:01.863Z,100571.78
2023-03-06T04:08:05.630Z,100561.47
2023-03-06T04:09:09.038Z,100569.16
2023-03-06T04:10:13.056Z,100559.94
2023-03-06T04:11:16.808Z,100565.22
2023-03-06T04:12:19.662Z,100569.03
2023-03-06T04:13:24.148Z,100563.91
2023-03-06T04:14:26.754Z,100560.38
2023-03-06T04:15:31.899Z,100563.28
2023-03-06T04:16:34.411Z,100567.63
2023-03-06T04:17:38.254Z,100566.72
2023-03-06T04:18:41.080Z,100569.59
2023-03-06T04:19:44.867Z,100572.56
2023-03-06T04:20:47.420Z,100569.84
2023-03-06T04:21:50.990Z,100572.06
2023-03-06T04:22:53.413Z,100571.06
2023-03-06T04:23:57.172Z,100567.88
2023-03-06T04:24:59.580Z,100572.81
2023-03-06T04:26:03.009Z,100579.97
2023-03-06T04:27:05.847Z,100580.25
2023-03-06T04:28:10.438Z,100573.44
2023-03-06T04:29:12.975Z,100580.31
2023-03-06T04:30:16.570Z,100573.69
2023-03-06T04:31:20.287Z,100587.72
2023-03-06T04:32:24.092Z,100569.13
2023-03-06T04:33:26.524Z,100569.28
2023-03-06T04:34:29.846Z,100569.78
2023-03-06T04:35:32.366Z,100573.31
2023-03-06T04:36:36.518Z,100562.84
2023-03-06T04:37:39.030Z,100569.13
2023-03-06T04:38:42.421Z,100567.91
2023-03-06T04:39:45.043Z,100562.91
2023-03-06T04:40:49.789Z,100566.75
2023-03-06T04:41:52.461Z,100569.03
2023-03-06T04:42:56.486Z,100567.91
2023-03-06T04:43:58.873Z,100565.28
2023-03-06T04:45:02.213Z,100575.50
2023-03-06T04:46:04.650Z,100571.44
2023-03-06T04:47:10.001Z,100569.34
2023-03-06T04:48:14.518Z,100567.44
2023-03-06T04:49:18.087Z,100570.53
2023-03-06T04:50:20.478Z,100572.13
2023-03-06T04:51:24.106Z,100571.63
2023-03-06T04:52:26.454Z,100574.56
2023-03-06T04:53:29.746Z,100569.16
2023-03-06T04:54:32.201Z,100570.34
2023-03-06T04:55:35.878Z,100572.63
2023-03-06T04:56:38.104Z,100576.59
2023-03-06T04:57:42.904Z,100573.44
2023-03-06T04:58:45.627Z,100572.25
2023-03-06T04:59:49.768Z,100570.13
2023-03-06T05:00:52.257Z,100576.09
2023-03-06T05:01:55.814Z,100577.94
2023-03-06T05:03:01.298Z,100576.78
2023-03-06T05:04:04.607Z,100577.47
2023-03-06T05:05:07.760Z,100581.69
2023-03-06T05:06:11.502Z,100577.97
2023-03-06T05:07:13.723Z,100573.69
2023-03-06T05:08:18.350Z,100578.78
2023-03-06T05:09:20.865Z,100578.13
2023-03-06T05:10:25.251Z,100577.69
2023-03-06T05:11:27.841Z,100581.19
2023-03-06T05:12:31.305Z,100577.47
2023-03-06T05:13:33.828Z,100573.94
2023-03-06T05:14:37.176Z,100571.13
2023-03-06T05:15:40.801Z,100576.00
2023-03-06T05:16:44.141Z,100575.09
2023-03-06T05:17:47.677Z,100583.56
2023-03-06T05:18:52.359Z,100578.38
2023-03-06T05:19:54.684Z,100585.28
2023-03-06T05:21:00.131Z,100579.63
2023-03-06T05:22:02.496Z,100584.63
2023-03-06T05:23:05.844Z,100577.25
2023-03-06T05:24:09.445Z,100586.44
2023-03-06T05:25:12.258Z,100581.56
2023-03-06T05:26:16.753Z,100579.06
2023-03-06T05:27:19.445Z,100581.66
2023-03-06T05:28:23.436Z,100581.66
2023-03-06T05:29:25.858Z,100580.06
2023-03-06T05:30:29.343Z,100574.06
2023-03-06T05:31:31.832Z,100582.13
2023-03-06T05:32:35.838Z,100581.44
2023-03-06T05:33:38.296Z,100583.72
2023-03-06T05:34:43.154Z,100578.59
2023-03-06T05:35:48.354Z,100583.47
2023-03-06T05:36:50.680Z,100576.66
2023-03-06T05:37:54.228Z,100580.88
2023-03-06T05:38:56.665Z,100574.44
2023-03-06T05:40:00.708Z,100577.13
2023-03-06T05:41:03.743Z,100577.25
2023-03-06T05:42:07.297Z,100577.13
2023-03-06T05:43:10.488Z,100581.91
2023-03-06T05:44:14.619Z,100578.16
2023-03-06T05:45:18.168Z,100576.44
2023-03-06T05:46:20.581Z,100576.09
2023-03-06T05:47:24.070Z,100581.09
2023-03-06T05:48:26.436Z,100585.66
2023-03-06T05:49:34.944Z,100588.34
2023-03-06T05:50:40.373Z,100585.50
2023-03-06T05:51:42.971Z,100588.59
2023-03-06T05:52:46.348Z,100592.00
2023-03-06T05:53:48.506Z,100590.16
2023-03-06T05:54:53.487Z,100592.31
2023-03-06T05:55:57.107Z,100590.50
2023-03-06T05:57:00.402Z,100593.13
2023-03-06T05:58:02.690Z,100594.59
2023-03-06T05:59:05.987Z,100587.09
2023-03-06T06:00:10.801Z,100593.25
2023-03-06T06:01:16.243Z,100600.94
2023-03-06T06:02:19.307Z,100600.78
2023-03-06T06:03:22.836Z,100598.06
2023-03-06T06:04:26.338Z,100599.78
2023-03-06T06:05:29.670Z,100594.91
2023-03-06T06:06:33.346Z,100598.09
2023-03-06T06:07:36.740Z,100602.38
2023-03-06T06:08:39.538Z,100596.63
2023-03-06T06:09:43.516Z,100593.31
2023-03-06T06:10:46.927Z,100601.38
2023-03-06T06:11:51.782Z,100600.47
2023-03-06T06:12:55.132Z,100602.97
2023-03-06T06:13:57.464Z,100600.91
2023-03-06T06:15:00.762Z,100606.69
2023-03-06T06:16:07.432Z,100610.41
2023-03-06T06:17:12.606Z,100614.97
2023-03-06T06:18:14.901Z,100613.03
2023-03-06T06:19:20.414Z,100615.28
2023-03-06T06:20:22.905Z,100610.09
2023-03-06T06:21:26.393Z,100619.25
2023-03-06T06:22:30.145Z,100618.00
2023-03-06T06:23:33.484Z,100621.84
2023-03-06T06:24:35.864Z,100620.19
2023-03-06T06:25:39.458Z,100630.63
2023-03-06T06:26:42.371Z,100625.25
2023-03-06T06:27:45.919Z,100633.22
2023-03-06T06:28:48.208Z,100626.38
2023-03-06T06:29:53.136Z,100625.16
2023-03-06T06:30:55.640Z,100623.88
2023-03-06T06:31:59.105Z,100631.72
2023-03-06T06:33:01.651Z,100631.81
2023-03-06T06:34:05.129Z,100627.63
2023-03-06T06:35:09.085Z,100633.19
2023-03-06T06:36:19.883Z,100632.03
2023-03-06T06:37:23.190Z,100630.47
2023-03-06T06:38:26.868Z,100640.66
2023-03-06T06:39:30.560Z,100635.81
2023-03-06T06:40:32.843Z,100636.94
2023-03-06T06:41:53.413Z,100645.19
2023-03-06T06:42:58.416Z,100644.97
2023-03-06T06:44:01.421Z,100640.56
2023-03-06T06:45:05.230Z,100644.75
2023-03-06T06:46:32.331Z,100644.31
2023-03-06T06:47:30.868Z,100641.25
2023-03-06T06:48:33.324Z,100633.66
2023-03-06T06:49:36.668Z,100645.66
2023-03-06T06:50:39.334Z,100647.38
2023-03-06T06:51:43.010Z,100648.97
2023-03-06T06:52:46.381Z,100651.00
2023-03-06T06:53:51.917Z,100649.75
2023-03-06T06:54:55.454Z,100646.78
2023-03-06T06:55:58.931Z,100649.59
2023-03-06T06:57:02.423Z,100646.19
2023-03-06T06:58:04.803Z,100649.41
2023-03-06T06:59:16.639Z,100652.91
2023-03-06T07:00:20.838Z,100655.41
2023-03-06T07:01:24.634Z,100653.34
2023-03-06T07:02:27.075Z,100655.59
2023-03-06T07:03:30.462Z,100650.94
2023-03-06T07:04:32.724Z,100654.44
2023-03-06T07:05:36.375Z,100656.00
2023-03-06T07:06:39.705Z,100657.59
2023-03-06T07:07:42.389Z,100663.16
2023-03-06T07:08:45.699Z,100668.63
2023-03-06T07:09:49.389Z,100665.69
2023-03-06T07:10:52.734Z,100674.75
2023-03-06T07:11:55.095Z,100675.34
2023-03-06T07:12:58.479Z,100673.91
2023-03-06T07:14:02.025Z,100677.69
2023-03-06T07:15:06.081Z,100677.25
2023-03-06T07:16:08.552Z,100668.38
2023-03-06T07:17:11.863Z,100673.69
2023-03-06T07:18:15.461Z,100675.50
2023-03-06T07:19:18.778Z,100681.69
2023-03-06T07:20:22.244Z,100677.59
2023-03-06T07:21:25.663Z,100681.31
2023-03-06T07:22:30.322Z,100682.47
2023-03-06T07:23:35.425Z,100681.94
2023-03-06T07:24:38.740Z,100684.88
2023-03-06T07:25:43.174Z,100682.53
2023-03-06T07:26:48.118Z,100688.53
2023-03-06T07:27:53.878Z,100685.13
2023-03-06T07:28:57.730Z,100687.06
2023-03-06T07:30:00.164Z,100690.78
2023-03-06T07:31:03.950Z,100689.50
2023-03-06T07:32:06.843Z,100685.66
2023-03-06T07:33:11.084Z,100695.25
2023-03-06T07:34:16.116Z,100695.88
2023-03-06T07:35:20.421Z,100691.94
2023-03-06T07:36:25.147Z,100700.09
2023-03-06T07:37:29.774Z,100699.88
2023-03-06T07:38:33.138Z,100695.19
2023-03-06T07:39:35.569Z,100703.84
2023-03-06T07:40:40.092Z,100707.41
2023-03-06T07:41:45.181Z,100702.72
2023-03-06T07:42:47.798Z,100699.81
2023-03-06T07:43:51.514Z,100708.28
2023-03-06T07:44:53.917Z,100704.94
2023-03-06T07:45:58.542Z,100702.88
2023-03-06T07:47:02.190Z,100714.88
2023-03-06T07:48:05.657Z,100706.22
2023-03-06T07:49:10.026Z,100719.13
2023-03-06T07:50:12.977Z,100714.25
2023-03-06T07:51:20.048Z,100714.38
2023-03-06T07:52:22.579Z,100719.56
2023-03-06T07:53:26.118Z,100723.59
2023-03-06T07:54:30.805Z,100718.13
2023-03-06T07:55:33.122Z,100723.91
2023-03-06T07:56:36.442Z,100725.19
2023-03-06T07:57:40.316Z,100724.03
2023-03-06T07:58:46.899Z,100723.13
2023-03-06T07:59:49.280Z,100732.09
2023-03-06T08:00:52.825Z,100733.97
2023-03-06T08:01:57.660Z,100741.13
2023-03-06T08:03:01.392Z,100744.22
2023-03-06T08:04:03.718Z,100741.91
2023-03-06T08:05:08.438Z,100737.69
2023-03-06T08:06:13.906Z,100734.84
2023-03-06T08:07:16.451Z,100739.50
2023-03-06T08:08:19.859Z,100739.94
2023-03-06T08:09:22.164Z,100746.06
2023-03-06T08:10:25.501Z,100735.59
2023-03-06T08:11:31.451Z,100743.13
2023-03-06T08:12:33.804Z,100742.09
2023-03-06T08:13:40.444Z,100742.97
2023-03-06T08:14:42.882Z,100748.06
2023-03-06T08:15:50.187Z,100743.66
2023-03-06T08:16:56.471Z,100744.00
2023-03-06T08:18:00.080Z,100750.00
2023-03-06T08:19:02.783Z,100741.53
2023-03-06T08:20:07.341Z,100743.00
2023-03-06T08:21:12.843Z,100744.44
2023-03-06T08:22:16.267Z,100745.28
2023-03-06T08:23:19.769Z,100742.38
2023-03-06T08:24:22.233Z,100753.72
2023-03-06T08:25:26.100Z,100748.19
2023-03-06T08:26:31.620Z,100745.81
2023-03-06T08:27:34.955Z,100748.63
2023-03-06T08:28:39.950Z,100745.81
2023-03-06T08:29:42.522Z,100746.47
2023-03-06T08:30:45.871Z,100737.47
2023-03-06T08:31:49.610Z,100749.53
2023-03-06T08:32:52.028Z,100743.97
2023-03-06T08:33:56.761Z,100746.50
2023-03-06T08:34:59.627Z,100748.56
2023-03-06T08:36:03.078Z,100746.66
2023-03-06T08:37:05.514Z,100748.03
2023-03-06T08:38:08.761Z,100745.03
2023-03-06T08:39:13.190Z,100743.13
2023-03-06T08:40:16.764Z,100747.28
2023-03-06T08:41:20.340Z,100750.38
2023-03-06T08:42:23.767Z,100750.00
2023-03-06T08:43:26.161Z,100752.50
2023-03-06T08:44:30.940Z,100749.13
2023-03-06T08:45:33.307Z,100755.03
2023-03-06T08:46:37.247Z,100763.00
2023-03-06T08:47:39.681Z,100754.50
2023-03-06T08:48:43.389Z,100755.91
2023-03-06T08:49:46.672Z,100757.22
2023-03-06T08:50:49.506Z,100754.34
2023-03-06T08:51:53.148Z,100756.00
2023-03-06T08:52:55.383Z,100759.97
2023-03-06T08:54:00.109Z,100765.78
2023-03-06T08:55:03.752Z,100760.56
2023-03-06T08:56:08.107Z,100758.22
2023-03-06T08:57:11.452Z,100767.94
2023-03-06T08:58:14.319Z,100763.75
2023-03-06T08:59:17.627Z,100771.34
2023-03-06T09:00:22.767Z,100765.06
2023-03-06T09:01:27.980Z,100765.59
2023-03-06T09:02:31.457Z,100768.72
2023-03-06T09:03:33.694Z,100770.28
2023-03-06T09:04:37.036Z,100771.41
2023-03-06T09:05:41.584Z,100772.94
2023-03-06T09:06:44.300Z,100771.31
2023-03-06T09:07:47.680Z,100768.75
2023-03-06T09:08:51.267Z,100778.72
2023-03-06T09:09:57.931Z,100769.81
2023-03-06T09:11:00.545Z,100778.59
2023-03-06T09:12:04.014Z,100762.66
2023-03-06T09:13:06.806Z,100770.31
2023-03-06T09:14:10.898Z,100764.19
2023-03-06T09:15:14.056Z,100768.66
2023-03-06T09:16:18.981Z,100776.38
2023-03-06T09:17:22.572Z,100769.00
2023-03-06T09:18:25.978Z,100773.31
2023-03-06T09:19:29.408Z,100768.34
2023-03-06T09:20:32.828Z,100769.69
2023-03-06T09:21:36.394Z,100774.53
2023-03-06T09:22:42.489Z,100769.47
2023-03-06T09:23:45.188Z,100769.69
2023-03-06T09:24:49.151Z,100779.53
2023-03-06T09:25:53.128Z,100769.81
2023-03-06T09:26:56.679Z,100775.66
2023-03-06T09:28:11.039Z,100769.44
2023-03-06T09:29:16.517Z,100779.13
2023-03-06T09:30:20.274Z,100775.69
2023-03-06T09:31:24.263Z,100775.44
2023-03-06T09:32:27.691Z,100774.88
2023-03-06T09:33:31.374Z,100767.03
2023-03-06T09:34:34.699Z,100770.00
2023-03-06T09:35:42.805Z,100774.41
2023-03-06T09:36:55.846Z,100772.50
2023-03-06T09:37:59.705Z,100769.56
2023-03-06T09:39:03.072Z,100776.84
2023-03-06T09:40:07.606Z,100779.91
2023-03-06T09:41:24.434Z,100780.81
2023-03-06T09:42:30.389Z,100785.13
2023-03-06T09:43:35.888Z,100788.97
2023-03-06T09:44:43.412Z,100780.88
2023-03-06T09:45:46.153Z,100783.81
2023-03-06T09:47:10.026Z,100788.59
2023-03-06T09:48:15.882Z,100791.97
2023-03-06T09:49:39.484Z,100790.31
2023-03-06T09:50:47.312Z,100789.53
2023-03-06T09:52:04.318Z,100795.31
2023-03-06T09:53:40.798Z,100793.44
2023-03-06T09:54:46.132Z,100787.78
2023-03-06T09:55:56.969Z,100790.56
2023-03-06T09:56:59.381Z,100791.72
2023-03-06T09:58:07.532Z,100794.88
2023-03-06T09:59:15.737Z,100790.44
2023-03-06T10:00:25.281Z,100803.56
2023-03-06T10:01:31.328Z,100798.59
2023-03-06T10:02:40.327Z,100791.84
2023-03-06T10:03:50.773Z,100795.72
2023-03-06T10:05:01.204Z,100796.97
2023-03-06T10:06:11.534Z,100792.88
2023-03-06T10:07:19.045Z,100790.69
2023-03-06T10:08:30.663Z,100795.50
2023-03-06T10:09:42.755Z,100805.97
2023-03-06T10:10:51.353Z,100798.78
2023-03-06T10:11:58.867Z,100803.66
2023-03-06T10:13:07.394Z,100801.34
2023-03-06T10:14:20.351Z,100801.50
2023-03-06T10:15:27.919Z,100807.19
2023-03-06T10:16:33.215Z,100809.84
2023-03-06T10:17:43.112Z,100804.56
2023-03-06T10:18:46.968Z,100808.63
2023-03-06T10:19:49.998Z,100818.69
2023-03-06T10:21:10.322Z,100807.88
2023-03-06T10:22:29.454Z,100813.91
2023-03-06T10:23:50.878Z,100814.31
2023-03-06T10:24:59.034Z,100813.66
2023-03-06T10:26:03.244Z,100820.00
2023-03-06T10:27:17.920Z,100812.63
2023-03-06T10:28:28.636Z,100821.06
2023-03-06T10:29:50.165Z,100812.50
2023-03-06T10:31:05.041Z,100815.19
2023-03-06T10:32:22.441Z,100813.44
2023-03-06T10:33:38.614Z,100810.13
2023-03-06T10:34:43.466Z,100809.91
2023-03-06T10:35:49.777Z,100812.03
2023-03-06T10:36:53.201Z,100813.59
2023-03-06T10:38:01.074Z,100813.16
2023-03-06T10:39:11.518Z,100816.91
2023-03-06T10:40:18.470Z,100813.97
2023-03-06T10:41:25.584Z,100805.19
2023-03-06T10:42:29.025Z,100814.34
2023-03-06T10:43:34.680Z,100813.81
2023-03-06T10:44:39.595Z,100809.81
2023-03-06T10:45:53.886Z,100813.28
2023-03-06T10:46:56.541Z,100803.50
2023-03-06T10:48:12.235Z,100814.66
2023-03-06T10:49:32.189Z,100804.84
2023-03-06T10:50:35.453Z,100813.78
2023-03-06T10:51:38.719Z,100803.72
2023-03-06T10:52:42.488Z,100801.50
2023-03-06T10:53:55.062Z,100805.06
2023-03-06T10:55:25.110Z,100803.03
2023-03-06T10:56:31.843Z,100809.00
2023-03-06T10:57:34.181Z,100806.19
2023-03-06T10:58:37.554Z,100811.00
2023-03-06T10:59:51.774Z,100802.69
2023-03-06T11:01:03.910Z,100798.94
2023-03-06T11:02:27.469Z,100810.09
2023-03-06T11:03:31.481Z,100806.47
2023-03-06T11:04:38.913Z,100816.41
2023-03-06T11:05:41.262Z,100810.47
2023-03-06T11:06:45.382Z,100808.56
2023-03-06T11:07:55.114Z,100810.97
2023-03-06T11:09:16.086Z,100807.19
2023-03-06T11:10:19.984Z,100807.09
2023-03-06T11:11:36.797Z,100814.66
2023-03-06T11:12:41.423Z,100814.00
2023-03-06T11:13:45.766Z,100806.59
2023-03-06T11:14:48.161Z,100814.19
2023-03-06T11:15:58.732Z,100817.75
2023-03-06T11:17:02.021Z,100813.28
2023-03-06T11:18:23.763Z,100821.69
2023-03-06T11:19:30.064Z,100823.72
2023-03-06T11:20:51.111Z,100825.31
2023-03-06T11:22:02.876Z,100827.38
2023-03-06T11:23:09.540Z,100823.66
2023-03-06T11:24:18.763Z,100824.91
2023-03-06T11:25:23.414Z,100826.19
2023-03-06T11:26:34.258Z,100817.06
2023-03-06T11:27:42.768Z,100812.25
2023-03-06T11:28:49.842Z,100818.41
2023-03-06T11:29:58.381Z,100813.53
2023-03-06T11:31:06.492Z,100818.53
2023-03-06T11:32:15.578Z,100806.25
2023-03-06T11:33:25.141Z,100813.09
2023-03-06T11:34:40.342Z,100812.34
2023-03-06T11:35:52.686Z,100820.94
2023-03-06T11:37:00.016Z,100814.97
2023-03-06T11:38:07.445Z,100812.50
2023-03-06T11:39:22.950Z,100814.91
2023-03-06T11:40:31.328Z,100824.63
2023-03-06T11:41:46.119Z,100817.06
2023-03-06T11:42:57.382Z,100824.91
2023-03-06T11:44:09.755Z,100817.44
2023-03-06T11:45:25.449Z,100818.59
2023-03-06T11:46:32.477Z,100820.13
2023-03-06T11:47:39.351Z,100811.13
2023-03-06T11:48:47.725Z,100811.09
2023-03-06T11:50:01.033Z,100813.13
2023-03-06T11:51:15.355Z,100811.97
2023-03-06T11:52:25.247Z,100813.00
2023-03-06T11:53:32.503Z,100807.91
2023-03-06T11:54:35.865Z,100809.28
2023-03-06T11:55:48.240Z,100815.50
2023-03-06T11:56:55.406Z,100809.84
2023-03-06T11:58:09.697Z,100806.22
2023-03-06T11:59:36.747Z,100809.69
2023-03-06T12:00:51.415Z,100810.59
2023-03-06T12:02:00.821Z,100807.50
2023-03-06T12:03:27.236Z,100811.09
2023-03-06T12:04:42.697Z,100803.81
2023-03-06T12:05:48.741Z,100810.47
2023-03-06T12:07:02.172Z,100813.09
2023-03-06T12:08:23.535Z,100807.34
2023-03-06T12:09:33.695Z,100806.63
2023-03-06T12:10:41.703Z,100806.31
2023-03-06T12:11:53.997Z,100797.81
2023-03-06T12:13:19.922Z,100806.97
2023-03-06T12:14:40.344Z,100807.19
2023-03-06T12:16:02.024Z,100792.69
2023-03-06T12:17:20.852Z,100793.50
2023-03-06T12:18:39.683Z,100796.03
2023-03-06T12:19:55.708Z,100784.06
2023-03-06T12:21:04.733Z,100785.19
2023-03-06T12:22:22.990Z,100792.75
2023-03-06T12:23:53.044Z,100781.34
2023-03-06T12:25:18.045Z,100780.06
2023-03-06T12:26:40.279Z,100788.97
2023-03-06T12:27:49.727Z,100785.00